createdAt,value
2019-05-06T00:00:29.775Z,95162.19
2019-05-06T00:02:59.723Z,95169.97
2019-05-06T00:05:29.731Z,95159.55
2019-05-06T00:07:59.671Z,95166.89
2019-05-06T00:10:31.397Z,95152.91
2019-05-06T00:13:01.488Z,95159.84
2019-05-06T00:15:31.645Z,95169.16
2019-05-06T00:18:01.696Z,95165.50
2019-05-06T00:20:32.036Z,95164.07
2019-05-06T00:23:07.297Z,95160.73
2019-05-06T00:25:56.310Z,95158.16
2019-05-06T00:28:38.436Z,95158.31
2019-05-06T00:31:14.026Z,95161.30
2019-05-06T00:33:44.388Z,95162.44
2019-05-06T00:36:14.940Z,95160.50
2019-05-06T00:38:50.155Z,95161.73
2019-05-06T00:41:24.860Z,95161.73
2019-05-06T00:43:56.846Z,95155.73
2019-05-06T00:46:28.637Z,95162.83
2019-05-06T00:48:58.624Z,95168.70
2019-05-06T00:51:28.458Z,95163.63
2019-05-06T00:54:05.672Z,95159.02
2019-05-06T00:56:37.185Z,95163.09
2019-05-06T00:59:08.680Z,95161.29
2019-05-06T01:01:38.681Z,95169.66
2019-05-06T01:04:08.583Z,95167.51
2019-05-06T01:06:38.598Z,95165.87
2019-05-06T01:09:14.069Z,95170.89
2019-05-06T01:11:45.656Z,95164.07
2019-05-06T01:14:20.901Z,95168.86
2019-05-06T01:16:50.844Z,95170.90
2019-05-06T01:19:20.747Z,95173.89
2019-05-06T01:21:50.749Z,95166.14
2019-05-06T01:24:23.696Z,95167.59
2019-05-06T01:26:53.810Z,95173.20
2019-05-06T01:29:24.827Z,95180.55
2019-05-06T01:31:54.761Z,95178.16
2019-05-06T01:34:24.772Z,95182.41
2019-05-06T01:36:55.038Z,95182.48
2019-05-06T01:39:34.038Z,95187.71
2019-05-06T01:42:08.782Z,95188.61
2019-05-06T01:44:38.752Z,95187.72
2019-05-06T01:47:08.808Z,95185.28
2019-05-06T01:49:38.713Z,95187.60
2019-05-06T01:52:08.727Z,95185.65
2019-05-06T01:54:38.693Z,95191.83
2019-05-06T01:57:08.667Z,95188.78
2019-05-06T01:59:38.585Z,95194.02
2019-05-06T02:02:08.579Z,95191.20
2019-05-06T02:04:38.591Z,95189.50
2019-05-06T02:07:08.596Z,95186.23
2019-05-06T02:09:38.794Z,95187.73
2019-05-06T02:12:08.795Z,95190.15
2019-05-06T02:14:38.787Z,95191.98
2019-05-06T02:17:08.761Z,95191.13
2019-05-06T02:19:39.113Z,95192.94
2019-05-06T02:22:29.149Z,95193.97
2019-05-06T02:25:21.588Z,95198.77
2019-05-06T02:27:51.504Z,95207.09
2019-05-06T02:30:30.095Z,95204.78
2019-05-06T02:33:24.621Z,95209.59
2019-05-06T02:36:25.765Z,95205.98
2019-05-06T02:38:56.134Z,95206.91
2019-05-06T02:41:26.215Z,95210.05
2019-05-06T02:43:56.128Z,95219.99
2019-05-06T02:46:26.157Z,95217.27
2019-05-06T02:49:04.683Z,95215.52
2019-05-06T02:51:34.601Z,95219.89
2019-05-06T02:54:04.645Z,95221.40
2019-05-06T02:56:34.567Z,95223.59
2019-05-06T02:59:04.626Z,95221.26
2019-05-06T03:01:34.612Z,95224.90
2019-05-06T03:04:04.919Z,95223.63
2019-05-06T03:06:34.999Z,95229.35
2019-05-06T03:09:07.065Z,95224.42
2019-05-06T03:11:37.039Z,95223.06
2019-05-06T03:14:07.014Z,95219.34
2019-05-06T03:16:37.142Z,95230.27
2019-05-06T03:19:07.157Z,95229.56
2019-05-06T03:21:46.476Z,95233.98
2019-05-06T03:24:44.626Z,95234.26
2019-05-06T03:27:15.681Z,95230.74
2019-05-06T03:29:45.632Z,95243.25
2019-05-06T03:32:22.134Z,95239.47
2019-05-06T03:35:07.909Z,95247.24
2019-05-06T03:37:20.054Z,95250.17
2019-05-06T03:39:52.666Z,95248.73
2019-05-06T03:42:23.037Z,95246.19
2019-05-06T03:44:57.700Z,95253.84
2019-05-06T03:47:35.093Z,95253.39
2019-05-06T03:50:05.838Z,95259.33
2019-05-06T03:52:35.732Z,95252.16
2019-05-06T03:55:05.835Z,95263.17
2019-05-06T03:57:37.790Z,95264.77
2019-05-06T04:00:13.044Z,95252.48
2019-05-06T04:02:43.515Z,95259.09
2019-05-06T04:05:13.717Z,95259.34
2019-05-06T04:07:45.949Z,95263.22
2019-05-06T04:10:16.152Z,95268.23
2019-05-06T04:12:47.666Z,95271.58
2019-05-06T04:15:17.951Z,95273.03
2019-05-06T04:17:54.589Z,95275.89
2019-05-06T04:20:43.773Z,95279.84
2019-05-06T04:23:24.495Z,95279.07
2019-05-06T04:26:16.355Z,95280.52
2019-05-06T04:28:46.441Z,95283.83
2019-05-06T04:31:16.475Z,95289.24
2019-05-06T04:34:05.354Z,95290.53
2019-05-06T04:36:18.245Z,95294.00
2019-05-06T04:38:48.236Z,95295.45
2019-05-06T04:41:18.152Z,95290.37
2019-05-06T04:46:37.563Z,95290.49
2019-05-06T04:49:14.018Z,95298.13
2019-05-06T04:51:42.873Z,95295.93
2019-05-06T04:54:13.393Z,95293.44
2019-05-06T04:56:44.096Z,95304.97
2019-05-06T04:59:14.276Z,95306.27
2019-05-06T05:01:45.593Z,95306.05
2019-05-06T05:04:27.795Z,95306.84
2019-05-06T05:06:52.412Z,95305.56
2019-05-06T05:09:23.271Z,95303.09
2019-05-06T05:12:02.526Z,95305.94
2019-05-06T05:14:42.197Z,95313.20
2019-05-06T05:17:33.138Z,95309.26
2019-05-06T05:20:04.547Z,95306.67
2019-05-06T05:22:35.150Z,95320.98
2019-05-06T05:25:05.556Z,95322.77
2019-05-06T05:27:35.867Z,95316.73
2019-05-06T05:30:06.568Z,95314.30
2019-05-06T05:32:36.565Z,95312.67
2019-05-06T05:35:06.639Z,95314.53
2019-05-06T05:37:36.825Z,95307.57
2019-05-06T05:40:06.962Z,95320.73
2019-05-06T05:43:05.268Z,95322.39
2019-05-06T05:45:35.277Z,95323.34
2019-05-06T05:48:12.306Z,95330.22
2019-05-06T05:50:42.520Z,95327.87
2019-05-06T05:53:12.620Z,95326.61
2019-05-06T05:55:43.520Z,95328.01
2019-05-06T05:58:13.515Z,95331.05
2019-05-06T06:00:43.706Z,95322.53
2019-05-06T06:03:13.756Z,95331.73
2019-05-06T06:05:43.773Z,95325.35
2019-05-06T06:08:13.869Z,95329.48
2019-05-06T06:10:56.752Z,95334.52
2019-05-06T06:13:26.896Z,95337.57
2019-05-06T06:16:14.833Z,95332.61
2019-05-06T06:19:12.567Z,95332.98
2019-05-06T06:21:49.403Z,95336.55
2019-05-06T06:24:29.091Z,95336.56
2019-05-06T06:26:59.475Z,95335.58
2019-05-06T06:29:29.673Z,95338.50
2019-05-06T06:32:23.058Z,95339.73
2019-05-06T06:35:13.800Z,95337.32
2019-05-06T06:37:52.387Z,95337.63
2019-05-06T06:40:24.732Z,95335.84
2019-05-06T06:42:59.370Z,95343.23
2019-05-06T06:45:29.285Z,95342.30
2019-05-06T06:47:59.285Z,95342.52
2019-05-06T06:50:29.590Z,95338.41
2019-05-06T06:52:59.498Z,95339.07
2019-05-06T06:55:31.737Z,95338.38
2019-05-06T06:58:19.950Z,95340.47
2019-05-06T07:01:09.157Z,95344.30
2019-05-06T07:03:46.773Z,95341.39
2019-05-06T07:06:23.627Z,95350.69
2019-05-06T07:08:53.511Z,95352.90
2019-05-06T07:11:23.431Z,95351.35
2019-05-06T07:13:56.756Z,95346.29
2019-05-06T07:16:26.736Z,95344.80
2019-05-06T07:18:56.647Z,95345.47
2019-05-06T07:21:37.515Z,95337.28
2019-05-06T07:24:07.539Z,95339.39
2019-05-06T07:26:43.317Z,95345.24
2019-05-06T07:29:23.127Z,95345.43
2019-05-06T07:31:45.274Z,95342.41
2019-05-06T07:34:15.250Z,95342.00
2019-05-06T07:36:45.195Z,95347.70
2019-05-06T07:39:15.722Z,95346.56
2019-05-06T07:41:54.817Z,95339.75
2019-05-06T07:44:53.026Z,95344.11
2019-05-06T07:47:33.074Z,95346.80
2019-05-06T07:50:03.107Z,95353.39
2019-05-06T07:52:33.010Z,95347.39
2019-05-06T07:55:03.027Z,95347.42
2019-05-06T07:57:33.165Z,95342.45
2019-05-06T08:00:03.684Z,95339.84
2019-05-06T08:02:34.079Z,95351.34
2019-05-06T08:05:07.526Z,95343.70
2019-05-06T08:07:36.017Z,95343.19
2019-05-06T08:10:07.117Z,95341.12
2019-05-06T08:12:37.115Z,95348.16
2019-05-06T08:15:08.640Z,95349.09
2019-05-06T08:17:42.321Z,95344.98
2019-05-06T08:20:13.163Z,95339.25
2019-05-06T08:23:08.420Z,95346.02
2019-05-06T08:25:42.522Z,95343.79
2019-05-06T08:28:13.391Z,95344.56
2019-05-06T08:30:43.581Z,95353.74
2019-05-06T08:33:13.624Z,95343.50
2019-05-06T08:35:44.697Z,95345.53
2019-05-06T08:38:14.693Z,95346.86
2019-05-06T08:40:44.742Z,95338.09
2019-05-06T08:43:14.712Z,95339.77
2019-05-06T08:45:44.608Z,95344.40
2019-05-06T08:48:14.543Z,95329.17
2019-05-06T08:51:02.709Z,95332.54
2019-05-06T08:53:53.376Z,95328.27
2019-05-06T08:56:23.486Z,95338.20
2019-05-06T08:58:53.496Z,95336.23
2019-05-06T09:01:48.916Z,95337.48
2019-05-06T09:04:19.026Z,95339.30
2019-05-06T09:06:49.047Z,95333.95
2019-05-06T09:09:19.022Z,95339.47
2019-05-06T09:11:49.018Z,95334.70
2019-05-06T09:14:18.945Z,95338.73
2019-05-06T09:16:51.348Z,95330.21
2019-05-06T09:19:23.107Z,95347.28
2019-05-06T09:21:53.259Z,95341.86
2019-05-06T09:24:23.735Z,95338.02
2019-05-06T09:26:59.022Z,95342.96
2019-05-06T09:29:42.919Z,95346.06
2019-05-06T09:32:19.282Z,95336.37
2019-05-06T09:34:52.762Z,95336.27
2019-05-06T09:37:23.942Z,95335.71
2019-05-06T09:39:55.406Z,95331.54
2019-05-06T09:42:27.209Z,95336.86
2019-05-06T09:44:57.193Z,95337.68
2019-05-06T09:47:53.134Z,95332.60
2019-05-06T09:50:35.271Z,95333.34
2019-05-06T09:53:08.210Z,95334.91
2019-05-06T09:56:00.006Z,95331.73
2019-05-06T09:58:32.304Z,95341.56
2019-05-06T10:01:02.842Z,95335.87
2019-05-06T10:03:33.838Z,95337.16
2019-05-06T10:06:03.738Z,95336.93
2019-05-06T10:08:33.705Z,95337.11
2019-05-06T10:11:03.676Z,95332.77
2019-05-06T10:13:33.765Z,95334.96
2019-05-06T10:16:03.736Z,95327.09
2019-05-06T10:18:33.746Z,95322.70
2019-05-06T10:21:03.774Z,95321.45
2019-05-06T10:23:33.763Z,95326.20
2019-05-06T10:26:04.760Z,95323.13
2019-05-06T10:28:43.016Z,95321.06
2019-05-06T10:31:15.052Z,95329.45
2019-05-06T10:34:03.384Z,95320.38
2019-05-06T10:37:12.563Z,95313.30
2019-05-06T10:39:37.100Z,95323.19
2019-05-06T10:42:13.720Z,95327.36
2019-05-06T10:44:55.872Z,95326.58
2019-05-06T10:47:25.855Z,95331.43
2019-05-06T10:49:55.700Z,95322.69
2019-05-06T10:52:30.206Z,95327.69
2019-05-06T10:55:03.307Z,95316.91
2019-05-06T10:57:43.164Z,95320.84
2019-05-06T11:00:13.472Z,95325.88
2019-05-06T11:03:05.347Z,95330.82
2019-05-06T11:05:35.381Z,95329.94
2019-05-06T11:08:05.353Z,95328.26
2019-05-06T11:10:41.105Z,95337.73
2019-05-06T11:13:06.960Z,95334.58
2019-05-06T11:15:37.243Z,95335.67
2019-05-06T11:18:07.384Z,95334.36
2019-05-06T11:20:37.415Z,95337.54
2019-05-06T11:23:07.383Z,95338.94
2019-05-06T11:25:38.297Z,95337.13
2019-05-06T11:28:25.774Z,95340.00
2019-05-06T11:31:14.079Z,95335.15
2019-05-06T11:33:50.128Z,95346.09
2019-05-06T11:36:32.321Z,95342.94
2019-05-06T11:39:01.956Z,95340.13
2019-05-06T11:41:33.419Z,95345.59
2019-05-06T11:44:03.428Z,95346.31
2019-05-06T11:46:33.405Z,95344.98
2019-05-06T11:49:03.404Z,95342.16
2019-05-06T11:51:33.483Z,95340.62
2019-05-06T11:54:16.392Z,95344.97
2019-05-06T11:56:47.892Z,95338.88
2019-05-06T11:59:08.590Z,95339.34
2019-05-06T12:01:43.462Z,95345.38
2019-05-06T12:04:14.089Z,95350.27
2019-05-06T12:06:44.094Z,95345.94
2019-05-06T12:09:17.015Z,95348.52
2019-05-06T12:11:45.825Z,95348.42
2019-05-06T12:14:15.737Z,95354.45
2019-05-06T12:16:45.725Z,95351.67
2019-05-06T12:19:15.684Z,95356.97
2019-05-06T12:21:45.613Z,95353.27
2019-05-06T12:24:15.573Z,95346.04
2019-05-06T12:26:45.383Z,95356.63
2019-05-06T12:29:15.360Z,95352.67
2019-05-06T12:31:48.657Z,95357.27
2019-05-06T12:34:18.555Z,95345.45
2019-05-06T12:36:52.731Z,95354.28
2019-05-06T12:39:26.534Z,95358.00
2019-05-06T12:42:11.992Z,95356.17
2019-05-06T12:44:45.767Z,95362.06
2019-05-06T12:47:43.895Z,95371.77
2019-05-06T12:50:14.281Z,95366.33
2019-05-06T12:52:44.437Z,95373.77
2019-05-06T12:55:21.403Z,95365.42
2019-05-06T12:57:46.325Z,95373.69
2019-05-06T13:00:16.397Z,95375.78
2019-05-06T13:02:46.255Z,95377.28
2019-05-06T13:05:19.449Z,95375.32
2019-05-06T13:07:49.427Z,95369.26
2019-05-06T13:10:23.137Z,95371.52
2019-05-06T13:13:04.340Z,95373.59
2019-05-06T13:15:34.237Z,95370.17
2019-05-06T13:18:07.132Z,95367.66
2019-05-06T13:20:36.927Z,95367.50
2019-05-06T13:23:17.189Z,95370.89
2019-05-06T13:25:45.455Z,95368.41
2019-05-06T13:28:16.853Z,95370.61
2019-05-06T13:30:46.762Z,95365.44
2019-05-06T13:33:38.852Z,95372.58
2019-05-06T13:36:09.017Z,95361.82
2019-05-06T13:38:38.907Z,95379.25
2019-05-06T13:41:08.935Z,95373.54
2019-05-06T13:43:43.673Z,95371.23
2019-05-06T13:46:28.713Z,95360.02
2019-05-06T13:49:16.488Z,95359.41
2019-05-06T13:51:55.270Z,95365.52
2019-05-06T13:54:25.236Z,95360.08
2019-05-06T13:56:55.131Z,95362.59
2019-05-06T13:59:29.663Z,95374.86
2019-05-06T14:02:24.975Z,95368.23
2019-05-06T14:04:56.007Z,95361.20
2019-05-06T14:07:26.011Z,95375.54
2019-05-06T14:09:55.946Z,95379.70
2019-05-06T14:12:25.868Z,95378.12
2019-05-06T14:14:55.784Z,95372.80
2019-05-06T14:17:25.787Z,95372.66
2019-05-06T14:19:55.615Z,95384.70
2019-05-06T14:22:25.655Z,95377.80
2019-05-06T14:25:02.261Z,95372.95
2019-05-06T14:27:32.783Z,95374.74
2019-05-06T14:30:09.129Z,95372.16
2019-05-06T14:32:38.997Z,95375.86
2019-05-06T14:35:09.028Z,95378.36
2019-05-06T14:37:38.996Z,95370.12
2019-05-06T14:40:11.873Z,95372.05
2019-05-06T14:42:42.419Z,95370.05
2019-05-06T14:45:14.732Z,95373.53
2019-05-06T14:47:44.200Z,95378.11
2019-05-06T14:50:14.952Z,95377.23
2019-05-06T14:52:44.910Z,95373.09
2019-05-06T14:55:23.206Z,95373.27
2019-05-06T14:57:54.177Z,95375.73
2019-05-06T15:00:24.164Z,95374.44
2019-05-06T15:02:54.008Z,95368.95
2019-05-06T15:05:24.007Z,95380.62
2019-05-06T15:07:53.979Z,95372.34
2019-05-06T15:10:26.515Z,95384.56
2019-05-06T15:12:55.502Z,95382.83
2019-05-06T15:15:25.450Z,95378.16
2019-05-06T15:17:55.392Z,95379.59
2019-05-06T15:20:25.525Z,95385.59
2019-05-06T15:22:55.507Z,95391.56
2019-05-06T15:25:25.384Z,95387.25
2019-05-06T15:27:55.398Z,95394.94
2019-05-06T15:30:34.171Z,95394.20
2019-05-06T15:33:05.123Z,95392.09
2019-05-06T15:35:53.165Z,95401.98
2019-05-06T15:38:25.854Z,95406.63
2019-05-06T15:40:55.856Z,95392.38
2019-05-06T15:43:25.683Z,95395.91
2019-05-06T15:45:55.749Z,95397.95
2019-05-06T15:48:25.733Z,95399.63
2019-05-06T15:50:55.781Z,95404.73
2019-05-06T15:53:25.753Z,95398.69
2019-05-06T15:55:55.742Z,95402.04
2019-05-06T15:58:25.668Z,95393.19
2019-05-06T16:00:55.572Z,95399.31
2019-05-06T16:03:25.463Z,95402.97
2019-05-06T16:05:55.477Z,95401.45
2019-05-06T16:08:25.345Z,95398.20
2019-05-06T16:10:58.658Z,95398.53
2019-05-06T16:13:26.773Z,95401.19
2019-05-06T16:15:56.587Z,95399.59
2019-05-06T16:18:27.388Z,95400.98
2019-05-06T16:20:58.435Z,95397.10
2019-05-06T16:23:42.282Z,95393.59
2019-05-06T16:26:13.431Z,95397.82
2019-05-06T16:28:45.077Z,95398.11
2019-05-06T16:31:15.133Z,95397.58
2019-05-06T16:33:45.129Z,95399.44
2019-05-06T16:36:16.071Z,95395.38
2019-05-06T16:38:46.043Z,95404.87
2019-05-06T16:41:16.445Z,95397.57
2019-05-06T16:43:46.507Z,95403.50
2019-05-06T16:46:16.580Z,95404.66
2019-05-06T16:48:46.605Z,95401.40
2019-05-06T16:51:19.338Z,95395.81
2019-05-06T16:53:49.366Z,95398.80
2019-05-06T16:56:25.425Z,95409.88
2019-05-06T16:58:58.080Z,95405.14
2019-05-06T17:01:27.923Z,95407.95
2019-05-06T17:04:04.363Z,95408.12
2019-05-06T17:06:36.348Z,95413.15
2019-05-06T17:09:20.123Z,95410.05
2019-05-06T17:11:42.497Z,95407.67
2019-05-06T17:14:12.346Z,95407.10
2019-05-06T17:16:43.540Z,95410.86
2019-05-06T17:19:13.457Z,95413.19
2019-05-06T17:21:43.369Z,95413.89
2019-05-06T17:24:13.298Z,95420.03
2019-05-06T17:26:43.343Z,95424.20
2019-05-06T17:29:32.710Z,95430.78
2019-05-06T17:32:11.879Z,95429.63
2019-05-06T17:34:44.488Z,95429.88
2019-05-06T17:37:32.978Z,95435.52
2019-05-06T17:40:08.063Z,95435.87
2019-05-06T17:42:34.755Z,95432.90
2019-05-06T17:45:24.900Z,95436.88
2019-05-06T17:47:59.377Z,95441.02
2019-05-06T17:50:29.294Z,95438.94
2019-05-06T17:52:59.198Z,95442.92
2019-05-06T17:55:29.096Z,95441.26
2019-05-06T17:57:58.985Z,95437.45
2019-05-06T18:00:28.975Z,95443.22
2019-05-06T18:02:58.865Z,95447.77
2019-05-06T18:05:28.782Z,95441.73
2019-05-06T18:07:58.699Z,95444.91
2019-05-06T18:10:28.623Z,95453.67
2019-05-06T18:12:58.522Z,95455.47
2019-05-06T18:15:29.350Z,95455.95
2019-05-06T18:18:02.171Z,95460.89
2019-05-06T18:20:33.555Z,95464.41
2019-05-06T18:23:03.876Z,95464.75
2019-05-06T18:25:33.766Z,95471.68
2019-05-06T18:28:03.814Z,95471.25
2019-05-06T18:30:37.035Z,95474.89
2019-05-06T18:33:05.779Z,95482.05
2019-05-06T18:35:35.714Z,95481.63
2019-05-06T18:38:05.888Z,95481.33
2019-05-06T18:40:35.737Z,95486.22
2019-05-06T18:43:05.805Z,95490.31
2019-05-06T18:45:35.989Z,95489.95
2019-05-06T18:48:05.994Z,95495.54
2019-05-06T18:50:36.008Z,95493.12
2019-05-06T18:53:05.978Z,95497.17
2019-05-06T18:55:35.967Z,95504.33
2019-05-06T18:58:05.949Z,95501.25
2019-05-06T19:00:35.914Z,95500.12
2019-05-06T19:03:05.887Z,95510.81
2019-05-06T19:05:37.543Z,95515.11
2019-05-06T19:08:24.446Z,95510.31
2019-05-06T19:10:54.268Z,95515.97
2019-05-06T19:13:24.192Z,95522.31
2019-05-06T19:15:54.026Z,95520.38
2019-05-06T19:18:23.933Z,95521.90
2019-05-06T19:20:53.938Z,95531.72
2019-05-06T19:23:23.847Z,95531.30
2019-05-06T19:25:54.827Z,95531.22
2019-05-06T19:28:24.755Z,95538.33
2019-05-06T19:30:54.786Z,95541.66
2019-05-06T19:33:24.854Z,95549.97
2019-05-06T19:35:54.731Z,95545.18
2019-05-06T19:38:24.746Z,95549.83
2019-05-06T19:40:54.601Z,95550.56
2019-05-06T19:43:24.530Z,95549.91
2019-05-06T19:45:54.534Z,95557.55
2019-05-06T19:48:24.700Z,95558.55
2019-05-06T19:50:54.655Z,95560.77
2019-05-06T19:53:24.619Z,95563.48
2019-05-06T19:55:54.529Z,95554.70
2019-05-06T19:58:24.356Z,95563.02
2019-05-06T20:00:56.406Z,95561.27
2019-05-06T20:03:26.220Z,95556.52
2019-05-06T20:06:33.311Z,95559.23
2019-05-06T20:09:24.187Z,95552.22
2019-05-06T20:11:56.550Z,95556.48
2019-05-06T20:14:26.453Z,95555.04
2019-05-06T20:16:56.461Z,95549.03
2019-05-06T20:19:30.645Z,95552.78
2019-05-06T20:21:57.963Z,95547.05
2019-05-06T20:24:27.853Z,95552.34
2019-05-06T20:26:57.754Z,95549.58
2019-05-06T20:29:27.747Z,95548.47
2019-05-06T20:31:57.715Z,95546.59
2019-05-06T20:34:27.529Z,95544.19
2019-05-06T20:36:57.415Z,95545.17
2019-05-06T20:39:27.314Z,95541.03
2019-05-06T20:41:57.298Z,95544.06
2019-05-06T20:44:27.130Z,95540.25
2019-05-06T20:46:57.130Z,95540.92
2019-05-06T20:49:27.105Z,95538.73
2019-05-06T20:51:56.990Z,95539.52
2019-05-06T20:54:26.922Z,95540.33
2019-05-06T20:56:56.864Z,95537.23
2019-05-06T20:59:26.774Z,95532.00
2019-05-06T21:01:56.762Z,95534.41
2019-05-06T21:04:26.653Z,95532.77
2019-05-06T21:06:56.545Z,95530.28
2019-05-06T21:09:26.453Z,95529.14
2019-05-06T21:11:56.354Z,95522.61
2019-05-06T21:14:26.335Z,95531.79
2019-05-06T21:16:56.235Z,95528.44
2019-05-06T21:19:26.143Z,95531.36
2019-05-06T21:21:56.094Z,95526.82
2019-05-06T21:24:26.068Z,95529.31
2019-05-06T21:26:56.033Z,95534.97
2019-05-06T21:29:26.033Z,95534.03
2019-05-06T21:31:56.216Z,95527.30
2019-05-06T21:34:26.319Z,95526.67
2019-05-06T21:36:56.335Z,95524.23
2019-05-06T21:39:26.263Z,95524.60
2019-05-06T21:41:56.329Z,95520.03
2019-05-06T21:44:26.193Z,95519.72
2019-05-06T21:46:56.094Z,95512.78
2019-05-06T21:49:25.953Z,95513.44
2019-05-06T21:51:55.875Z,95518.70
2019-05-06T21:54:25.711Z,95521.83
2019-05-06T21:56:55.677Z,95510.45
2019-05-06T21:59:25.656Z,95517.69
2019-05-06T22:01:55.635Z,95516.09
2019-05-06T22:04:25.615Z,95516.29
2019-05-06T22:06:55.538Z,95520.55
2019-05-06T22:09:25.375Z,95510.35
2019-05-06T22:11:55.290Z,95505.77
2019-05-06T22:14:25.298Z,95507.73
2019-05-06T22:16:55.119Z,95511.69
2019-05-06T22:19:25.109Z,95504.28
2019-05-06T22:22:06.171Z,95501.27
2019-05-06T22:24:46.517Z,95503.49
2019-05-06T22:27:16.982Z,95495.90
2019-05-06T22:29:47.168Z,95499.91
2019-05-06T22:32:17.162Z,95498.90
2019-05-06T22:34:47.072Z,95492.69
2019-05-06T22:37:16.967Z,95491.22
2019-05-06T22:39:46.983Z,95484.59
2019-05-06T22:42:16.878Z,95489.73
2019-05-06T22:44:46.708Z,95484.35
2019-05-06T22:47:17.750Z,95482.84
2019-05-06T22:49:47.721Z,95482.44
2019-05-06T22:52:17.534Z,95485.47
2019-05-06T22:54:47.470Z,95482.92
2019-05-06T22:57:17.366Z,95477.14
2019-05-06T22:59:47.188Z,95485.57
2019-05-06T23:02:32.443Z,95479.95
2019-05-06T23:05:04.516Z,95477.14
2019-05-06T23:07:34.323Z,95486.05
2019-05-06T23:10:04.976Z,95480.51
2019-05-06T23:12:35.081Z,95477.59
2019-05-06T23:15:06.245Z,95481.95
2019-05-06T23:17:36.110Z,95481.21
2019-05-06T23:20:06.469Z,95477.30
2019-05-06T23:22:36.287Z,95474.18
2019-05-06T23:25:06.516Z,95471.09
2019-05-06T23:27:36.337Z,95469.36
2019-05-06T23:30:07.084Z,95466.19
2019-05-06T23:32:36.987Z,95470.02
2019-05-06T23:35:07.281Z,95470.73
2019-05-06T23:38:13.453Z,95474.80
2019-05-06T23:41:21.808Z,95469.62
2019-05-06T23:44:27.698Z,95474.05
2019-05-06T23:47:34.380Z,95468.47
2019-05-06T23:50:42.702Z,95470.02
2019-05-06T23:53:48.021Z,95475.63
2019-05-06T23:56:44.990Z,95462.66
2019-05-06T23:59:16.080Z,95459.70
